Time;durP1;ratioP1;P1;durP2;ratioP2;P2;SDS_P1;SDS_P2;PMS_P1;PMS_P2;Temp;Humidity;BMP_temperature;BMP_pressure;BME280_temperature;BME280_humidity;BME280_pressure;Samples;Min_cycle;Max_cycle;Signal;HPM_P1;HPM_P2
2023/04/18 00:02:06;;;;;;;12.13;7.38;;;;;;;8.49;68.60;102512.47;4953755;28;20039;-78
2023/04/18 00:04:32;;;;;;;13.48;7.80;;;;;;;8.46;68.94;102508.06;4952989;28;20387;-78
2023/04/18 00:06:58;;;;;;;13.25;7.82;;;;;;;8.42;69.17;102510.63;4953658;28;20023;-78
2023/04/18 00:09:24;;;;;;;12.77;7.88;;;;;;;8.37;69.38;102502.78;4952334;28;20030;-78
2023/04/18 00:11:49;;;;;;;10.90;7.35;;;;;;;8.33;69.86;102507.09;4953574;28;20557;-78
2023/04/18 00:14:14;;;;;;;11.43;7.25;;;;;;;8.29;69.94;102510.50;4951278;28;20102;-78
2023/04/18 00:16:40;;;;;;;14.05;7.93;;;;;;;8.27;69.97;102509.59;4955226;28;20042;-78
2023/04/18 00:19:05;;;;;;;12.05;7.68;;;;;;;8.23;70.06;102505.22;4953419;28;20054;-78
2023/04/18 00:21:30;;;;;;;11.40;7.03;;;;;;;8.19;69.61;102498.28;4954737;28;20023;-78
2023/04/18 00:23:56;;;;;;;11.32;7.40;;;;;;;8.17;68.93;102503.44;4954455;28;20039;-78
2023/04/18 00:26:21;;;;;;;12.38;7.15;;;;;;;8.18;68.54;102499.16;4949284;28;20095;-78
2023/04/18 00:28:47;;;;;;;11.10;7.45;;;;;;;8.14;67.49;102499.94;4952258;28;20035;-78
2023/04/18 00:31:12;;;;;;;9.85;6.95;;;;;;;8.14;67.30;102502.53;4953001;28;20054;-78
2023/04/18 00:33:37;;;;;;;10.25;7.00;;;;;;;8.13;66.62;102501.66;4955053;28;20023;-78
2023/04/18 00:36:03;;;;;;;12.27;7.72;;;;;;;8.10;66.72;102498.16;4953040;28;20606;-78
2023/04/18 00:38:28;;;;;;;10.75;7.07;;;;;;;8.07;66.50;102499.03;4953990;28;20065;-78
2023/04/18 00:40:53;;;;;;;11.07;7.15;;;;;;;8.03;66.38;102492.91;4954177;28;20027;-78
2023/04/18 00:43:22;;;;;;;10.98;7.03;;;;;;;8.00;65.81;102492.91;4954793;28;20039;-79
2023/04/18 00:45:47;;;;;;;13.95;8.07;;;;;;;8.00;66.62;102492.00;4952545;28;20359;-79
2023/04/18 00:48:13;;;;;;;11.75;7.97;;;;;;;7.96;65.66;102501.47;4949897;28;20035;-78
2023/04/18 00:50:40;;;;;;;9.73;7.05;;;;;;;7.93;65.62;102491.06;4953153;28;20082;-78
2023/04/18 00:53:06;;;;;;;11.68;7.57;;;;;;;7.89;65.37;102495.34;4952805;28;20199;-78
2023/04/18 00:55:31;;;;;;;11.95;7.05;;;;;;;7.87;65.78;102501.34;4951509;28;20087;-78
2023/04/18 00:57:57;;;;;;;11.93;7.47;;;;;;;7.85;65.22;102497.91;4952280;28;20098;-78
2023/04/18 01:00:23;;;;;;;10.00;6.97;;;;;;;7.81;65.71;102496.13;4953347;28;20027;-78
2023/04/18 01:02:51;;;;;;;13.02;7.45;;;;;;;7.78;65.82;102501.25;4947218;28;20040;-78
2023/04/18 01:05:17;;;;;;;11.60;6.72;;;;;;;7.75;66.03;102496.91;4960247;28;20055;-78
2023/04/18 01:07:43;;;;;;;10.60;7.20;;;;;;;7.73;65.39;102496.03;4949591;28;20035;-78
2023/04/18 01:10:09;;;;;;;13.70;7.40;;;;;;;7.67;65.35;102499.41;4950647;28;20409;-78
2023/04/18 01:12:36;;;;;;;11.98;6.95;;;;;;;7.61;65.55;102499.31;4948140;28;20083;-78
2023/04/18 01:15:05;;;;;;;11.20;7.28;;;;;;;7.57;65.34;102497.53;4958560;28;20035;-78
2023/04/18 01:17:33;;;;;;;10.95;7.03;;;;;;;7.53;65.27;102493.13;4945408;28;20512;-78
2023/04/18 01:20:00;;;;;;;12.23;7.30;;;;;;;7.47;65.69;102493.06;4946467;28;20491;-78
2023/04/18 01:22:27;;;;;;;10.43;7.15;;;;;;;7.42;65.72;102491.28;4941049;28;20039;-78
2023/04/18 01:24:52;;;;;;;10.30;6.65;;;;;;;7.37;65.81;102487.75;4945749;28;20039;-78
2023/04/18 01:27:18;;;;;;;9.60;6.38;;;;;;;7.32;66.00;102492.00;4945375;28;20024;-78
2023/04/18 01:29:43;;;;;;;12.52;7.47;;;;;;;7.30;65.45;102485.94;4943815;28;20407;-78
2023/04/18 01:32:09;;;;;;;10.57;7.00;;;;;;;7.26;66.08;102481.56;4949215;28;20035;-78
2023/04/18 01:34:34;;;;;;;11.40;7.50;;;;;;;7.20;66.23;102481.47;4947005;28;20038;-78
2023/04/18 01:36:59;;;;;;;11.43;6.95;;;;;;;7.16;66.27;102477.97;4944982;28;20034;-78
2023/04/18 01:39:24;;;;;;;12.48;6.85;;;;;;;7.10;66.19;102481.34;4948281;28;20039;-78
2023/04/18 01:41:50;;;;;;;12.05;7.18;;;;;;;7.06;66.23;102479.53;4947459;28;20028;-78
2023/04/18 01:44:15;;;;;;;11.85;7.50;;;;;;;7.01;66.43;102476.00;4944644;28;20428;-78
2023/04/18 01:46:40;;;;;;;10.70;7.28;;;;;;;6.99;67.12;102475.13;4945007;28;20027;-78
2023/04/18 01:49:06;;;;;;;10.20;6.63;;;;;;;6.96;66.47;102483.69;4947208;28;20479;-78
2023/04/18 01:51:32;;;;;;;11.40;6.60;;;;;;;6.93;66.72;102475.03;4947991;28;20031;-78
2023/04/18 01:53:57;;;;;;;10.73;6.90;;;;;;;6.92;66.52;102475.88;4944399;28;20035;-78
2023/04/18 01:56:22;;;;;;;11.60;7.20;;;;;;;6.86;66.80;102475.75;4945621;28;20083;-78
2023/04/18 01:58:47;;;;;;;12.45;7.32;;;;;;;6.86;66.44;102480.94;4945291;28;20107;-78
2023/04/18 02:01:13;;;;;;;11.93;6.97;;;;;;;6.80;66.70;102482.59;4941877;28;20523;-78
2023/04/18 02:03:38;;;;;;;14.82;8.88;;;;;;;6.80;66.62;102479.13;4946849;28;20397;-78
2023/04/18 02:06:05;;;;;;;10.88;7.07;;;;;;;6.75;66.74;102468.69;4944548;28;20031;-78
2023/04/18 02:08:31;;;;;;;10.90;6.85;;;;;;;6.69;67.33;102473.75;4944756;28;20019;-78
2023/04/18 02:10:57;;;;;;;10.40;7.45;;;;;;;6.65;67.09;102472.00;4965157;28;20031;-78
2023/04/18 02:13:22;;;;;;;11.35;7.43;;;;;;;6.61;66.94;102467.59;4950816;28;20372;-77
2023/04/18 02:15:48;;;;;;;12.40;7.60;;;;;;;6.57;67.25;102468.41;4950227;28;20490;-78
2023/04/18 02:18:14;;;;;;;13.60;7.40;;;;;;;6.52;67.57;102471.75;4950739;28;20023;-78
2023/04/18 02:20:39;;;;;;;11.35;7.78;;;;;;;6.48;67.09;102471.69;4949249;28;20039;-77
2023/04/18 02:23:05;;;;;;;11.60;7.40;;;;;;;6.44;67.49;102463.00;4950301;28;20089;-77
2023/04/18 02:25:30;;;;;;;12.05;7.53;;;;;;;6.36;67.71;102459.41;4954239;28;20089;-77
2023/04/18 02:27:56;;;;;;;14.02;8.32;;;;;;;6.31;67.88;102461.06;4952064;28;20118;-77
2023/04/18 02:30:22;;;;;;;11.38;7.43;;;;;;;6.28;67.67;102466.16;4954243;28;20058;-77
2023/04/18 02:32:52;;;;;;;13.45;7.85;;;;;;;6.25;67.83;102466.09;4954494;28;20185;-78
2023/04/18 02:35:18;;;;;;;13.18;7.70;;;;;;;6.20;67.89;102461.72;4953129;28;20485;-78
2023/04/18 02:37:44;;;;;;;12.23;7.55;;;;;;;6.17;68.17;102455.63;4954654;28;20039;-78
2023/04/18 02:40:09;;;;;;;10.93;6.78;;;;;;;6.17;68.27;102464.22;4953735;28;20382;-78
2023/04/18 02:42:35;;;;;;;11.88;7.88;;;;;;;6.12;68.45;102460.72;4950893;28;20038;-78
2023/04/18 02:45:00;;;;;;;11.23;7.57;;;;;;;6.10;68.22;102459.81;4953924;28;20035;-77
2023/04/18 02:47:25;;;;;;;11.52;7.30;;;;;;;6.06;68.49;102465.75;4955143;28;20024;-77
2023/04/18 02:49:51;;;;;;;12.45;8.10;;;;;;;6.03;69.07;102466.56;4967104;28;20475;-77
2023/04/18 02:52:16;;;;;;;11.02;7.13;;;;;;;6.01;69.12;102462.19;4954996;28;20027;-78
2023/04/18 02:54:41;;;;;;;12.15;7.53;;;;;;;6.01;68.65;102467.38;4952051;28;20035;-78
2023/04/18 02:57:07;;;;;;;12.50;7.90;;;;;;;5.99;68.53;102462.16;4954052;28;20019;-78
2023/04/18 02:59:32;;;;;;;15.45;7.85;;;;;;;5.99;68.86;102471.59;4955706;28;20020;-77
2023/04/18 03:01:57;;;;;;;12.75;7.90;;;;;;;5.96;69.07;102467.25;4953131;28;20023;-77
2023/04/18 03:04:22;;;;;;;12.18;7.43;;;;;;;5.95;68.83;102464.66;4953926;28;20023;-78
2023/04/18 03:06:48;;;;;;;14.00;8.23;;;;;;;5.91;69.17;102467.16;4951834;28;20070;-78
2023/04/18 03:09:14;;;;;;;11.93;6.85;;;;;;;5.89;69.12;102463.69;4950255;28;20023;-78
2023/04/18 03:11:39;;;;;;;12.30;7.63;;;;;;;5.88;69.24;102456.78;4953730;28;20050;-78
2023/04/18 03:14:04;;;;;;;11.18;7.60;;;;;;;5.84;68.94;102454.97;4954535;28;20037;-77
2023/04/18 03:16:31;;;;;;;12.90;7.95;;;;;;;5.81;69.35;102454.88;4954049;28;20061;-77
2023/04/18 03:18:56;;;;;;;11.98;8.00;;;;;;;5.78;69.32;102460.03;4954673;28;20031;-77
2023/04/18 03:21:21;;;;;;;12.63;7.38;;;;;;;5.76;68.95;102457.38;4952527;28;20082;-78
2023/04/18 03:23:47;;;;;;;12.45;7.63;;;;;;;5.73;69.34;102466.78;4951513;28;20074;-78
2023/04/18 03:26:12;;;;;;;12.38;7.72;;;;;;;5.74;69.58;102463.38;4953836;28;20035;-78
2023/04/18 03:28:38;;;;;;;13.30;8.15;;;;;;;5.69;69.90;102472.72;4953152;28;20475;-78
2023/04/18 03:31:04;;;;;;;12.70;7.90;;;;;;;5.66;69.72;102470.06;4950544;28;20055;-78
2023/04/18 03:33:29;;;;;;;12.88;7.88;;;;;;;5.66;69.79;102462.31;4952874;28;20066;-78
2023/04/18 03:35:54;;;;;;;11.25;7.20;;;;;;;5.64;70.04;102461.44;4953144;28;20062;-78
2023/04/18 03:38:20;;;;;;;13.00;7.63;;;;;;;5.60;69.66;102463.97;4952829;28;20148;-77
2023/04/18 03:40:45;;;;;;;10.98;7.50;;;;;;;5.58;70.28;102469.91;4953944;28;20542;-77
2023/04/18 03:43:10;;;;;;;13.95;7.55;;;;;;;5.54;70.06;102465.53;4953632;28;20026;-77
2023/04/18 03:45:36;;;;;;;16.95;8.10;;;;;;;5.51;70.18;102466.34;4951096;28;20024;-77
2023/04/18 03:48:01;;;;;;;12.00;8.02;;;;;;;5.47;70.46;102470.56;4948879;28;20028;-77
2023/04/18 03:50:27;;;;;;;12.43;7.93;;;;;;;5.47;69.83;102474.84;4946192;28;20031;-78
2023/04/18 03:52:52;;;;;;;12.40;7.60;;;;;;;5.45;70.80;102468.78;4949744;28;20023;-78
2023/04/18 03:55:18;;;;;;;13.02;7.80;;;;;;;5.43;70.63;102470.47;4953723;28;20074;-77
2023/04/18 03:57:44;;;;;;;12.13;7.53;;;;;;;5.41;70.61;102472.13;4952326;28;20062;-78
2023/04/18 04:00:09;;;;;;;12.73;7.93;;;;;;;5.40;70.53;102468.66;4952347;28;20042;-78
2023/04/18 04:02:35;;;;;;;10.23;7.10;;;;;;;5.37;71.23;102471.22;4954459;28;20081;-78
2023/04/18 04:05:01;;;;;;;12.38;7.25;;;;;;;5.35;70.57;102472.00;4952984;28;20688;-78
2023/04/18 04:07:26;;;;;;;11.60;7.35;;;;;;;5.34;70.65;102465.97;4949880;28;20143;-78
2023/04/18 04:09:51;;;;;;;11.82;6.90;;;;;;;5.33;70.83;102471.97;4950569;28;20027;-78
2023/04/18 04:12:17;;;;;;;11.18;7.28;;;;;;;5.30;70.56;102472.75;4954511;28;20023;-78
2023/04/18 04:14:42;;;;;;;12.30;7.45;;;;;;;5.28;70.89;102471.88;4954503;28;20230;-78
2023/04/18 04:17:07;;;;;;;11.27;7.10;;;;;;;5.29;70.47;102465.00;4954658;28;20066;-77
2023/04/18 04:19:32;;;;;;;12.32;7.32;;;;;;;5.22;71.12;102469.16;4954037;28;20051;-78
2023/04/18 04:21:58;;;;;;;12.02;7.20;;;;;;;5.19;71.49;102470.78;4955159;28;20093;-77
2023/04/18 04:24:23;;;;;;;11.90;6.88;;;;;;;5.18;71.11;102475.06;4954434;28;20085;-77
2023/04/18 04:26:49;;;;;;;13.30;6.88;;;;;;;5.18;70.87;102479.38;4954888;28;20529;-77
2023/04/18 04:29:15;;;;;;;10.07;6.78;;;;;;;5.17;71.15;102470.75;4953366;28;20026;-78
2023/04/18 04:31:41;;;;;;;12.95;7.60;;;;;;;5.15;71.43;102481.03;4953011;28;20121;-77
2023/04/18 04:34:07;;;;;;;11.32;7.53;;;;;;;5.15;71.20;102474.97;4955000;28;20059;-78
2023/04/18 04:36:33;;;;;;;11.90;7.35;;;;;;;5.15;71.05;102480.16;4963586;28;20038;-78
2023/04/18 04:38:59;;;;;;;9.85;6.32;;;;;;;5.15;71.34;102480.16;4955009;28;20057;-78
2023/04/18 04:41:24;;;;;;;10.23;7.03;;;;;;;5.15;70.91;102482.72;4948959;28;20479;-77
2023/04/18 04:43:51;;;;;;;11.50;7.45;;;;;;;5.15;71.21;102485.31;4954785;28;20472;-77
2023/04/18 04:46:18;;;;;;;11.40;7.43;;;;;;;5.13;71.14;102484.41;4962497;28;20130;-78
2023/04/18 04:48:44;;;;;;;11.88;7.03;;;;;;;5.10;71.20;102489.50;4958880;28;20039;-77
2023/04/18 04:51:09;;;;;;;11.48;7.10;;;;;;;5.08;70.78;102483.44;4944496;28;20037;-81
2023/04/18 04:53:34;;;;;;;11.35;7.55;;;;;;;5.09;71.35;102487.75;4949206;28;20751;-76
2023/04/18 04:56:00;;;;;;;12.30;7.85;;;;;;;5.08;71.35;102486.88;4952880;28;20098;-77
2023/04/18 04:58:26;;;;;;;12.95;7.80;;;;;;;5.04;71.48;102489.34;4956577;28;20387;-78
2023/04/18 05:00:52;;;;;;;11.02;7.25;;;;;;;5.04;71.10;102495.38;4946625;28;20035;-78
2023/04/18 05:03:18;;;;;;;11.43;7.10;;;;;;;5.03;70.90;102492.75;4954451;28;20034;-78
2023/04/18 05:05:44;;;;;;;10.70;7.32;;;;;;;5.03;71.27;102492.75;4949931;28;20390;-78
2023/04/18 05:08:10;;;;;;;11.98;7.55;;;;;;;5.00;71.12;102491.84;4952372;28;20075;-78
2023/04/18 05:10:35;;;;;;;10.05;6.85;;;;;;;4.99;71.87;102492.69;4948882;28;20035;-78
2023/04/18 05:13:02;;;;;;;10.50;6.72;;;;;;;4.97;71.76;102503.81;4957181;28;20031;-77
2023/04/18 05:15:28;;;;;;;11.50;7.50;;;;;;;4.95;71.88;102490.84;4952933;28;20027;-77
2023/04/18 05:17:53;;;;;;;10.73;7.18;;;;;;;4.94;71.83;102498.56;4952224;28;20451;-78
2023/04/18 05:20:18;;;;;;;11.73;7.07;;;;;;;4.94;71.79;102498.56;4949863;28;20061;-78
2023/04/18 05:22:43;;;;;;;12.30;7.47;;;;;;;4.93;71.94;102499.41;4949246;28;20555;-78
2023/04/18 05:25:09;;;;;;;12.45;7.63;;;;;;;4.91;72.57;102498.50;4951362;28;20031;-78
2023/04/18 05:27:34;;;;;;;12.93;7.53;;;;;;;4.91;72.22;102503.66;4950273;28;20034;-78
2023/04/18 05:29:59;;;;;;;10.97;6.93;;;;;;;4.92;71.87;102508.88;4948980;28;20047;-78
2023/04/18 05:32:25;;;;;;;11.40;7.72;;;;;;;4.95;72.09;102505.47;4944404;28;20490;-78
2023/04/18 05:34:50;;;;;;;13.02;7.18;;;;;;;4.96;72.62;102504.63;4949122;28;20035;-78
2023/04/18 05:37:16;;;;;;;12.18;7.45;;;;;;;5.00;72.48;102515.06;4947926;28;20019;-78
2023/04/18 05:39:41;;;;;;;12.45;7.20;;;;;;;5.07;72.59;102507.50;4949435;28;20061;-78
2023/04/18 05:42:07;;;;;;;12.60;7.65;;;;;;;5.13;72.69;102516.25;4949608;28;20039;-78
2023/04/18 05:44:32;;;;;;;11.77;7.35;;;;;;;5.21;72.90;102513.84;4951171;28;20023;-77
2023/04/18 05:46:57;;;;;;;11.13;7.35;;;;;;;5.30;72.50;102524.38;4953621;28;20046;-78
2023/04/18 05:49:23;;;;;;;14.90;8.00;;;;;;;5.39;72.03;102515.09;4946357;28;20030;-78
2023/04/18 05:51:48;;;;;;;11.00;7.15;;;;;;;5.48;72.10;102517.88;4962217;28;20166;-78
2023/04/18 05:54:14;;;;;;;12.38;7.72;;;;;;;5.57;72.24;102517.22;4948093;28;20490;-78
2023/04/18 05:56:40;;;;;;;13.90;7.68;;;;;;;5.67;71.67;102518.28;4951284;28;20058;-77
2023/04/18 05:59:05;;;;;;;13.57;8.07;;;;;;;5.74;71.92;102518.47;4948130;28;20517;-77
2023/04/18 06:01:31;;;;;;;13.43;8.23;;;;;;;5.86;72.06;102524.75;4946498;28;20039;-77
2023/04/18 06:03:56;;;;;;;11.55;7.57;;;;;;;5.96;72.14;102520.66;4945755;28;20031;-77
2023/04/18 06:06:22;;;;;;;11.75;7.43;;;;;;;6.07;71.59;102525.19;4947650;28;20459;-78
2023/04/18 06:08:47;;;;;;;14.18;7.38;;;;;;;6.19;71.69;102524.56;4945355;28;20028;-77
2023/04/18 06:11:14;;;;;;;13.43;7.93;;;;;;;6.32;71.21;102522.25;4951374;28;20463;-78
2023/04/18 06:13:39;;;;;;;13.93;7.68;;;;;;;6.38;70.33;102523.25;4947407;28;20050;-78
2023/04/18 06:16:05;;;;;;;12.32;7.45;;;;;;;6.44;70.77;102525.06;4948570;28;20472;-77
2023/04/18 06:18:30;;;;;;;12.60;7.30;;;;;;;6.48;70.45;102529.47;4947439;28;20487;-78
2023/04/18 06:20:55;;;;;;;12.75;7.60;;;;;;;6.50;70.70;102534.66;4948509;28;20127;-78
2023/04/18 06:23:20;;;;;;;11.73;7.00;;;;;;;6.55;71.41;102532.13;4944383;28;20039;-78
2023/04/18 06:25:46;;;;;;;11.60;6.85;;;;;;;6.61;71.33;102525.34;4943723;28;20031;-78
2023/04/18 06:28:11;;;;;;;12.80;7.45;;;;;;;6.66;70.54;102535.81;4939760;28;20020;-78
2023/04/18 06:30:36;;;;;;;13.30;7.68;;;;;;;6.72;70.73;102538.47;4943314;28;20431;-78
2023/04/18 06:33:02;;;;;;;11.50;7.43;;;;;;;6.82;72.54;102532.66;4941304;28;20034;-78
2023/04/18 06:35:29;;;;;;;11.88;7.03;;;;;;;6.90;70.90;102539.66;4938756;28;20035;-78
2023/04/18 06:37:55;;;;;;;11.55;7.55;;;;;;;6.93;70.45;102529.34;4946891;28;20015;-78
2023/04/18 06:40:20;;;;;;;10.80;7.28;;;;;;;6.93;69.79;102531.94;4946279;28;20078;-78
2023/04/18 06:42:45;;;;;;;10.02;7.03;;;;;;;6.91;70.78;102537.09;4947046;28;20035;-78
2023/04/18 06:45:11;;;;;;;11.18;7.32;;;;;;;6.92;70.62;102548.31;4944514;28;20023;-78
2023/04/18 06:47:37;;;;;;;14.00;7.13;;;;;;;6.92;71.10;102546.59;4951178;28;20035;-78
2023/04/18 06:50:04;;;;;;;11.30;7.35;;;;;;;6.93;70.75;102545.75;4945066;28;20063;-78
2023/04/18 06:52:29;;;;;;;11.23;7.68;;;;;;;6.93;70.66;102547.47;4947229;28;20023;-78
2023/04/18 06:54:54;;;;;;;16.13;7.72;;;;;;;6.95;70.75;102532.84;4946401;28;20034;-78
2023/04/18 06:57:20;;;;;;;11.80;7.07;;;;;;;7.03;71.63;102539.00;4954201;28;20082;-78
2023/04/18 06:59:45;;;;;;;10.20;6.88;;;;;;;7.11;69.97;102549.47;4951809;28;20043;-78
2023/04/18 07:02:10;;;;;;;11.35;6.65;;;;;;;7.15;70.42;102553.88;4956493;28;20078;-78
2023/04/18 07:04:35;;;;;;;13.43;6.75;;;;;;;7.16;70.58;102553.03;4946921;28;20194;-78
2023/04/18 07:07:02;;;;;;;12.55;7.63;;;;;;;7.19;70.18;102557.38;4952498;28;20122;-78
2023/04/18 07:09:28;;;;;;;10.60;7.38;;;;;;;7.22;70.78;102552.25;4952320;28;20118;-78
2023/04/18 07:11:53;;;;;;;11.13;7.20;;;;;;;7.28;70.74;102554.94;4949746;28;20119;-78
2023/04/18 07:14:21;;;;;;;13.60;8.68;;;;;;;7.32;70.35;102554.16;4949417;28;20467;-78
2023/04/18 07:16:47;;;;;;;11.13;6.93;;;;;;;7.34;70.90;102555.06;4950793;28;20031;-78
2023/04/18 07:19:12;;;;;;;11.73;7.35;;;;;;;7.38;70.49;102556.81;4950150;28;20074;-78
2023/04/18 07:21:39;;;;;;;10.70;6.80;;;;;;;7.39;70.27;102557.69;4949887;28;20395;-78
2023/04/18 07:24:05;;;;;;;11.75;7.03;;;;;;;7.40;70.69;102559.44;4949202;28;20031;-78
2023/04/18 07:26:30;;;;;;;10.48;6.55;;;;;;;7.42;70.48;102566.38;4952312;28;20046;-78
2023/04/18 07:28:55;;;;;;;10.43;6.40;;;;;;;7.44;71.14;102562.09;4950346;28;20031;-78
2023/04/18 07:31:20;;;;;;;14.30;7.35;;;;;;;7.47;70.98;102553.50;4950568;28;20055;-78
2023/04/18 07:33:46;;;;;;;11.43;6.63;;;;;;;7.50;70.43;102557.88;4949399;28;20483;-78
2023/04/18 07:36:11;;;;;;;11.05;6.60;;;;;;;7.51;70.22;102557.03;4952896;28;20031;-78
2023/04/18 07:38:36;;;;;;;10.85;6.55;;;;;;;7.53;71.57;102563.06;4950423;28;20474;-78
2023/04/18 07:41:02;;;;;;;10.73;6.63;;;;;;;7.62;71.02;102558.03;4949548;28;20106;-78
2023/04/18 07:43:28;;;;;;;11.43;6.47;;;;;;;7.69;71.62;102566.75;4948567;28;20504;-78
2023/04/18 07:45:53;;;;;;;10.60;6.38;;;;;;;7.76;70.92;102571.19;4952012;28;20019;-78
2023/04/18 07:48:21;;;;;;;10.15;6.70;;;;;;;7.87;71.46;102563.53;4947007;28;20042;-78
2023/04/18 07:50:48;;;;;;;11.27;6.88;;;;;;;7.99;70.77;102574.09;4952933;28;20038;-78
2023/04/18 07:53:13;;;;;;;9.35;6.53;;;;;;;8.07;70.74;102575.91;4951280;28;20510;-78
2023/04/18 07:55:38;;;;;;;8.50;6.00;;;;;;;8.16;70.38;102571.69;4953130;28;20028;-78
2023/04/18 07:58:03;;;;;;;11.48;5.80;;;;;;;8.24;70.28;102568.34;4954695;28;20027;-78
2023/04/18 08:00:31;;;;;;;9.23;6.07;;;;;;;8.32;69.41;102572.75;4953160;28;20442;-78
2023/04/18 08:02:57;;;;;;;9.07;6.07;;;;;;;8.35;69.04;102567.63;4953724;28;20419;-78
2023/04/18 08:05:22;;;;;;;8.90;6.53;;;;;;;8.43;68.88;102582.38;4952891;28;20027;-78
2023/04/18 08:07:47;;;;;;;9.43;5.72;;;;;;;8.50;69.42;102576.44;4952486;28;20034;-78
2023/04/18 08:10:13;;;;;;;8.60;6.15;;;;;;;8.55;69.85;102579.94;4950174;28;20105;-79
2023/04/18 08:12:38;;;;;;;8.65;6.10;;;;;;;8.56;69.05;102576.50;4941449;28;20039;-79
2023/04/18 08:15:04;;;;;;;11.45;6.93;;;;;;;8.59;68.96;102576.53;4951554;28;20376;-78
2023/04/18 08:17:30;;;;;;;10.55;5.93;;;;;;;8.60;68.25;102573.09;4953694;28;20019;-78
2023/04/18 08:19:55;;;;;;;11.32;6.72;;;;;;;8.59;68.84;102575.69;4954427;28;20078;-78
2023/04/18 08:22:20;;;;;;;8.88;5.50;;;;;;;8.58;68.89;102573.94;4952980;28;20030;-78
2023/04/18 08:24:45;;;;;;;9.60;6.00;;;;;;;8.56;68.60;102579.09;4952645;28;20031;-78
2023/04/18 08:27:11;;;;;;;8.18;5.93;;;;;;;8.60;68.92;102580.88;4952764;28;20086;-78
2023/04/18 08:29:36;;;;;;;11.23;6.80;;;;;;;8.63;69.47;102574.84;4954561;28;20047;-78
2023/04/18 08:32:01;;;;;;;8.68;6.03;;;;;;;8.66;69.68;102574.88;4951708;28;20023;-79
2023/04/18 08:34:28;;;;;;;8.85;5.93;;;;;;;8.74;69.64;102586.22;4943625;28;20534;-78
2023/04/18 08:36:53;;;;;;;10.25;7.32;;;;;;;8.90;69.04;102576.84;4951046;28;20106;-78
2023/04/18 08:39:18;;;;;;;9.75;6.88;;;;;;;9.08;67.92;102580.44;4947053;28;20118;-79
2023/04/18 08:41:52;;;;;;;8.77;6.32;;;;;;;9.31;67.63;102577.19;4947881;28;20476;-79
2023/04/18 08:44:17;;;;;;;9.43;6.60;;;;;;;9.47;67.66;102573.84;4945288;28;20046;-78
2023/04/18 08:46:42;;;;;;;9.27;6.35;;;;;;;9.61;68.79;102573.94;4946774;28;20019;-79
2023/04/18 08:49:08;;;;;;;9.57;6.22;;;;;;;9.68;67.55;102567.03;4949294;28;20479;-78
2023/04/18 08:51:33;;;;;;;8.73;6.05;;;;;;;9.70;67.07;102570.53;4948018;28;20471;-78
2023/04/18 08:54:03;;;;;;;8.55;5.90;;;;;;;9.67;66.42;102575.69;4944166;28;20098;-79
2023/04/18 08:56:29;;;;;;;8.77;6.07;;;;;;;9.66;67.15;102564.41;4950867;28;20039;-78
2023/04/18 08:58:55;;;;;;;9.35;6.45;;;;;;;9.69;67.25;102563.59;4946908;28;20395;-77
2023/04/18 09:01:21;;;;;;;10.85;6.22;;;;;;;9.70;66.87;102555.78;4948769;28;20031;-78
2023/04/18 09:03:47;;;;;;;9.40;6.57;;;;;;;9.78;67.03;102558.44;4947909;28;20033;-78
2023/04/18 09:06:17;;;;;;;9.30;6.38;;;;;;;9.85;65.71;102565.41;4946285;28;20032;-78
2023/04/18 09:08:53;;;;;;;8.85;5.90;;;;;;;9.91;65.48;102561.97;4954334;28;20031;-77
2023/04/18 09:11:27;;;;;;;11.07;6.07;;;;;;;9.94;64.83;102561.09;4948796;28;20419;-79
2023/04/18 09:13:55;;;;;;;10.85;6.65;;;;;;;9.95;65.37;102565.44;4948705;28;20383;-79
2023/04/18 09:16:21;;;;;;;9.95;6.03;;;;;;;9.94;64.50;102558.50;4946024;28;20073;-78
2023/04/18 09:19:09;;;;;;;8.52;5.63;;;;;;;9.98;65.42;102560.25;4947026;28;20015;-79
2023/04/18 09:21:38;;;;;;;7.50;5.40;;;;;;;10.01;65.04;102565.47;4943950;28;20031;-79
2023/04/18 09:24:16;;;;;;;7.47;5.38;;;;;;;9.96;64.49;102561.97;4940651;28;20031;-80
2023/04/18 09:26:42;;;;;;;7.10;4.93;;;;;;;9.93;63.49;102567.16;4942196;28;20038;-80
2023/04/18 09:29:07;;;;;;;8.98;5.40;;;;;;;9.94;64.58;102568.91;4944789;28;20032;-79
2023/04/18 09:31:32;;;;;;;7.30;5.10;;;;;;;9.97;64.91;102571.53;4941187;28;20484;-79
2023/04/18 09:33:59;;;;;;;8.73;5.60;;;;;;;9.98;63.47;102566.34;4945434;28;20034;-79
2023/04/18 09:36:26;;;;;;;7.35;5.30;;;;;;;9.97;63.51;102567.22;4939581;28;20031;-79
2023/04/18 09:38:52;;;;;;;8.93;5.22;;;;;;;9.96;63.17;102564.56;4950412;28;20030;-79
2023/04/18 09:41:18;;;;;;;7.53;5.00;;;;;;;9.96;63.94;102568.06;4947993;28;20049;-79
2023/04/18 09:43:44;;;;;;;6.68;4.80;;;;;;;9.98;63.89;102568.94;4941504;28;20384;-79
2023/04/18 09:46:11;;;;;;;8.13;5.18;;;;;;;10.00;64.28;102564.59;4943294;28;20053;-79
2023/04/18 09:48:37;;;;;;;7.35;5.45;;;;;;;10.05;64.45;102562.03;4942542;28;20161;-79
2023/04/18 09:51:07;;;;;;;8.07;5.60;;;;;;;10.13;64.29;102568.13;4945494;28;20035;-79
2023/04/18 09:53:40;;;;;;;7.43;5.10;;;;;;;10.30;64.83;102568.19;4952400;28;20498;-80
2023/04/18 09:56:11;;;;;;;6.78;4.57;;;;;;;10.47;65.23;102559.59;4944957;28;20567;-79
2023/04/18 09:58:40;;;;;;;6.65;4.78;;;;;;;10.60;63.87;102555.28;4937190;28;20051;-79
2023/04/18 10:01:06;;;;;;;8.80;4.93;;;;;;;10.60;61.65;102561.34;4951311;28;20041;-79
2023/04/18 10:03:38;;;;;;;7.85;4.50;;;;;;;10.50;63.08;102570.03;4942375;28;20513;-79
2023/04/18 10:06:04;;;;;;;7.80;4.90;;;;;;;10.48;63.10;102571.75;4940385;28;20034;-79
2023/04/18 10:08:31;;;;;;;7.95;4.93;;;;;;;10.51;62.64;102568.28;4941317;28;20031;-79
2023/04/18 10:10:57;;;;;;;6.70;4.40;;;;;;;10.56;61.64;102570.03;4939912;28;20097;-79
2023/04/18 10:13:24;;;;;;;7.88;4.60;;;;;;;10.62;61.37;102570.03;4942363;28;20032;-79
2023/04/18 10:15:51;;;;;;;6.60;4.57;;;;;;;10.68;61.91;102574.38;4939823;28;20475;-79
2023/04/18 10:18:21;;;;;;;7.90;4.43;;;;;;;10.71;61.45;102568.31;4939220;28;20165;-79
2023/04/18 10:20:47;;;;;;;5.73;3.87;;;;;;;10.72;61.59;102568.31;4942344;28;20039;-79
2023/04/18 10:23:33;;;;;;;4.93;3.72;;;;;;;10.84;62.30;102562.28;4941325;28;20297;-79
2023/04/18 10:25:59;;;;;;;5.82;4.13;;;;;;;10.88;60.62;102563.13;4940521;28;20090;-79
2023/04/18 10:28:26;;;;;;;7.97;4.68;;;;;;;10.91;61.37;102570.97;4939321;28;20743;-80
2023/04/18 10:31:02;;;;;;;6.20;3.72;;;;;;;10.98;61.64;102566.63;4943338;28;20077;-80
2023/04/18 10:33:39;;;;;;;5.93;3.97;;;;;;;11.01;60.57;102570.06;4946250;28;20035;-79
2023/04/18 10:36:15;;;;;;;7.80;4.20;;;;;;;11.02;61.37;102577.03;4944955;28;20035;-79
2023/04/18 10:38:48;;;;;;;6.63;4.20;;;;;;;11.04;61.22;102569.19;4943051;28;20027;-79
2023/04/18 10:41:46;;;;;;;6.22;4.25;;;;;;;11.10;61.22;102560.53;4942044;28;20513;-79
2023/04/18 10:44:20;;;;;;;6.68;4.00;;;;;;;11.10;60.25;102560.53;4945048;28;20027;-80
2023/04/18 10:46:51;;;;;;;6.82;4.30;;;;;;;11.13;60.21;102555.31;4947567;28;20113;-79
2023/04/18 10:49:24;;;;;;;6.38;4.68;;;;;;;11.11;59.95;102562.25;4942808;28;20047;-79
2023/04/18 10:51:51;;;;;;;7.10;4.55;;;;;;;11.12;60.73;102561.38;4947746;28;20031;-79
2023/04/18 10:54:32;;;;;;;6.65;4.65;;;;;;;11.20;60.88;102552.69;4943706;28;20038;-80
2023/04/18 10:57:00;;;;;;;7.38;5.07;;;;;;;11.32;60.20;102549.22;4945892;28;20039;-80
2023/04/18 10:59:28;;;;;;;7.82;5.00;;;;;;;11.43;61.23;102564.00;4944413;28;20463;-80
2023/04/18 11:02:28;;;;;;;7.55;4.97;;;;;;;11.46;60.73;102561.34;4944044;28;20027;-80
2023/04/18 11:04:56;;;;;;;8.52;5.10;;;;;;;11.44;59.37;102550.09;4943788;28;20027;-79
2023/04/18 11:07:40;;;;;;;8.18;5.40;;;;;;;11.41;60.54;102555.31;4944220;28;20114;-80
2023/04/18 11:10:08;;;;;;;8.25;5.10;;;;;;;11.41;62.24;102553.53;4946886;28;20038;-79
2023/04/18 11:12:36;;;;;;;7.15;5.05;;;;;;;11.37;60.54;102552.69;4951750;28;20467;-80
2023/04/18 11:15:08;;;;;;;8.90;5.28;;;;;;;11.37;60.84;102554.41;4951201;28;20443;-79
2023/04/18 11:17:34;;;;;;;;;;;;;;;11.34;61.00;102555.28;4947041;28;20031;-80
2023/04/18 11:20:08;;;;;;;8.85;4.90;;;;;;;11.21;59.89;102558.78;4946628;28;19915;-79
2023/04/18 11:23:02;;;;;;;6.75;4.78;;;;;;;11.13;61.31;102555.31;4953114;28;20023;-79
2023/04/18 11:25:35;;;;;;;7.90;5.25;;;;;;;11.13;60.39;102555.31;4937539;28;20043;-79